sensor_id;sensor_type;location;lat;lon;timestamp;temperature;humidity
59651;DHT22;45954;49.768;8.636;2022-11-18T00:01:25;10.50;99.90
59651;DHT22;45954;49.768;8.636;2022-11-18T00:03:51;10.50;99.90
59651;DHT22;45954;49.768;8.636;2022-11-18T00:06:26;10.60;99.90
59651;DHT22;45954;49.768;8.636;2022-11-18T00:08:54;10.70;99.90
59651;DHT22;45954;49.768;8.636;2022-11-18T00:11:25;10.70;99.90
59651;DHT22;45954;49.768;8.636;2022-11-18T00:14:13;10.70;99.90
59651;DHT22;45954;49.768;8.636;2022-11-18T00:17:06;10.70;99.90
59651;DHT22;45954;49.768;8.636;2022-11-18T00:19:37;10.70;99.90
59651;DHT22;45954;49.768;8.636;2022-11-18T00:22:06;10.80;99.90
59651;DHT22;45954;49.768;8.636;2022-11-18T00:24:34;10.90;99.90
59651;DHT22;45954;49.768;8.636;2022-11-18T00:26:59;10.80;99.90
59651;DHT22;45954;49.768;8.636;2022-11-18T00:29:25;10.80;99.90
59651;DHT22;45954;49.768;8.636;2022-11-18T00:31:54;10.80;99.90
59651;DHT22;45954;49.768;8.636;2022-11-18T00:34:20;10.70;99.90
59651;DHT22;45954;49.768;8.636;2022-11-18T00:36:47;10.60;99.90
59651;DHT22;45954;49.768;8.636;2022-11-18T00:39:16;10.60;99.90
59651;DHT22;45954;49.768;8.636;2022-11-18T00:41:44;10.40;99.90
59651;DHT22;45954;49.768;8.636;2022-11-18T00:44:29;10.60;99.90
59651;DHT22;45954;49.768;8.636;2022-11-18T00:46:55;10.40;99.90
59651;DHT22;45954;49.768;8.636;2022-11-18T00:49:22;10.50;99.90
59651;DHT22;45954;49.768;8.636;2022-11-18T00:51:48;10.60;99.90
59651;DHT22;45954;49.768;8.636;2022-11-18T00:54:13;10.70;99.90
59651;DHT22;45954;49.768;8.636;2022-11-18T00:56:39;10.70;99.90
59651;DHT22;45954;49.768;8.636;2022-11-18T00:59:05;10.60;99.90
59651;DHT22;45954;49.768;8.636;2022-11-18T01:01:31;10.50;99.90
59651;DHT22;45954;49.768;8.636;2022-11-18T01:03:57;10.30;99.90
59651;DHT22;45954;49.768;8.636;2022-11-18T01:06:23;10.50;99.90
59651;DHT22;45954;49.768;8.636;2022-11-18T01:08:49;10.60;99.90
59651;DHT22;45954;49.768;8.636;2022-11-18T01:11:15;10.70;99.90
59651;DHT22;45954;49.768;8.636;2022-11-18T01:14:00;10.70;99.90
59651;DHT22;45954;49.768;8.636;2022-11-18T01:16:26;10.90;99.90
59651;DHT22;45954;49.768;8.636;2022-11-18T01:18:54;10.80;99.90
59651;DHT22;45954;49.768;8.636;2022-11-18T01:21:20;10.80;99.90
59651;DHT22;45954;49.768;8.636;2022-11-18T01:23:46;10.60;99.90
59651;DHT22;45954;49.768;8.636;2022-11-18T01:26:14;10.70;99.90
59651;DHT22;45954;49.768;8.636;2022-11-18T01:28:40;10.70;99.90
59651;DHT22;45954;49.768;8.636;2022-11-18T01:31:18;10.40;99.90
59651;DHT22;45954;49.768;8.636;2022-11-18T01:33:45;10.40;99.90
59651;DHT22;45954;49.768;8.636;2022-11-18T01:36:17;10.60;99.90
59651;DHT22;45954;49.768;8.636;2022-11-18T01:38:44;10.60;99.90
59651;DHT22;45954;49.768;8.636;2022-11-18T01:41:10;10.70;99.90
59651;DHT22;45954;49.768;8.636;2022-11-18T01:46:14;10.90;99.90
59651;DHT22;45954;49.768;8.636;2022-11-18T01:48:41;10.90;99.90
59651;DHT22;45954;49.768;8.636;2022-11-18T01:51:14;10.80;99.90
59651;DHT22;45954;49.768;8.636;2022-11-18T01:53:53;10.60;99.90
59651;DHT22;45954;49.768;8.636;2022-11-18T01:56:32;10.40;99.90
59651;DHT22;45954;49.768;8.636;2022-11-18T01:59:11;10.30;99.90
59651;DHT22;45954;49.768;8.636;2022-11-18T02:01:38;10.20;99.90
59651;DHT22;45954;49.768;8.636;2022-11-18T02:04:06;10.30;99.90
59651;DHT22;45954;49.768;8.636;2022-11-18T02:06:34;10.40;99.90
59651;DHT22;45954;49.768;8.636;2022-11-18T02:09:01;10.50;99.90
59651;DHT22;45954;49.768;8.636;2022-11-18T02:11:29;10.70;99.90
59651;DHT22;45954;49.768;8.636;2022-11-18T02:14:14;10.60;99.90
59651;DHT22;45954;49.768;8.636;2022-11-18T02:28:34;10.90;99.90
59651;DHT22;45954;49.768;8.636;2022-11-18T02:31:24;11.00;99.90
59651;DHT22;45954;49.768;8.636;2022-11-18T02:39:52;10.60;99.90
59651;DHT22;45954;49.768;8.636;2022-11-18T02:42:31;10.60;99.90
59651;DHT22;45954;49.768;8.636;2022-11-18T02:45:04;10.60;99.90
59651;DHT22;45954;49.768;8.636;2022-11-18T02:47:35;10.50;99.90
59651;DHT22;45954;49.768;8.636;2022-11-18T02:50:10;10.60;99.90
59651;DHT22;45954;49.768;8.636;2022-11-18T02:52:41;10.70;99.90
59651;DHT22;45954;49.768;8.636;2022-11-18T02:55:10;10.80;99.90
59651;DHT22;45954;49.768;8.636;2022-11-18T02:57:41;10.70;99.90
59651;DHT22;45954;49.768;8.636;2022-11-18T03:00:08;10.50;99.90
59651;DHT22;45954;49.768;8.636;2022-11-18T03:02:44;10.60;99.90
59651;DHT22;45954;49.768;8.636;2022-11-18T03:08:14;10.70;99.90
59651;DHT22;45954;49.768;8.636;2022-11-18T03:10:54;10.70;99.90
59651;DHT22;45954;49.768;8.636;2022-11-18T03:13:39;10.60;99.90
59651;DHT22;45954;49.768;8.636;2022-11-18T03:16:19;10.60;99.90
59651;DHT22;45954;49.768;8.636;2022-11-18T03:18:54;10.60;99.90
59651;DHT22;45954;49.768;8.636;2022-11-18T03:21:39;10.70;99.90
59651;DHT22;45954;49.768;8.636;2022-11-18T03:24:26;10.70;99.90
59651;DHT22;45954;49.768;8.636;2022-11-18T03:27:05;10.80;99.90
59651;DHT22;45954;49.768;8.636;2022-11-18T03:29:48;10.80;99.90
59651;DHT22;45954;49.768;8.636;2022-11-18T03:32:30;10.80;99.90
59651;DHT22;45954;49.768;8.636;2022-11-18T03:35:28;10.80;99.90
59651;DHT22;45954;49.768;8.636;2022-11-18T03:38:06;10.80;99.90
59651;DHT22;45954;49.768;8.636;2022-11-18T03:40:39;10.80;99.90
59651;DHT22;45954;49.768;8.636;2022-11-18T03:43:14;10.90;99.90
59651;DHT22;45954;49.768;8.636;2022-11-18T03:45:53;10.90;99.90
59651;DHT22;45954;49.768;8.636;2022-11-18T03:48:26;10.80;99.90
59651;DHT22;45954;49.768;8.636;2022-11-18T03:51:10;10.80;99.90
59651;DHT22;45954;49.768;8.636;2022-11-18T03:53:46;10.80;99.90
59651;DHT22;45954;49.768;8.636;2022-11-18T03:56:29;11.00;99.90
59651;DHT22;45954;49.768;8.636;2022-11-18T03:59:02;11.00;99.90
59651;DHT22;45954;49.768;8.636;2022-11-18T04:01:46;10.90;99.90
59651;DHT22;45954;49.768;8.636;2022-11-18T04:04:16;10.80;99.90
59651;DHT22;45954;49.768;8.636;2022-11-18T04:06:50;10.80;99.90
59651;DHT22;45954;49.768;8.636;2022-11-18T04:09:26;10.90;99.90
59651;DHT22;45954;49.768;8.636;2022-11-18T04:12:07;10.90;99.90
59651;DHT22;45954;49.768;8.636;2022-11-18T04:14:42;10.90;99.90
59651;DHT22;45954;49.768;8.636;2022-11-18T04:17:10;10.90;99.90
59651;DHT22;45954;49.768;8.636;2022-11-18T04:19:38;11.00;99.90
59651;DHT22;45954;49.768;8.636;2022-11-18T04:22:06;11.00;99.90
59651;DHT22;45954;49.768;8.636;2022-11-18T04:24:32;11.10;99.90
59651;DHT22;45954;49.768;8.636;2022-11-18T04:26:58;11.00;99.90
59651;DHT22;45954;49.768;8.636;2022-11-18T04:29:24;11.00;99.90
59651;DHT22;45954;49.768;8.636;2022-11-18T04:31:50;11.00;99.90
59651;DHT22;45954;49.768;8.636;2022-11-18T04:34:16;11.00;99.90
59651;DHT22;45954;49.768;8.636;2022-11-18T04:36:42;11.00;99.90
59651;DHT22;45954;49.768;8.636;2022-11-18T04:39:08;11.00;99.90
59651;DHT22;45954;49.768;8.636;2022-11-18T04:41:34;10.80;99.90
59651;DHT22;45954;49.768;8.636;2022-11-18T04:44:18;10.60;99.90
59651;DHT22;45954;49.768;8.636;2022-11-18T04:46:44;10.70;99.90
59651;DHT22;45954;49.768;8.636;2022-11-18T04:49:12;10.80;99.90
59651;DHT22;45954;49.768;8.636;2022-11-18T04:51:40;10.90;99.90
59651;DHT22;45954;49.768;8.636;2022-11-18T04:54:07;10.70;99.90
59651;DHT22;45954;49.768;8.636;2022-11-18T04:56:34;10.70;99.90
59651;DHT22;45954;49.768;8.636;2022-11-18T04:59:03;10.70;99.90
59651;DHT22;45954;49.768;8.636;2022-11-18T05:01:31;10.70;99.90
59651;DHT22;45954;49.768;8.636;2022-11-18T05:04:00;10.80;99.90
59651;DHT22;45954;49.768;8.636;2022-11-18T05:06:27;10.80;99.90
59651;DHT22;45954;49.768;8.636;2022-11-18T05:08:53;10.90;99.90
59651;DHT22;45954;49.768;8.636;2022-11-18T05:11:19;10.90;99.90
59651;DHT22;45954;49.768;8.636;2022-11-18T05:14:04;10.90;99.90
59651;DHT22;45954;49.768;8.636;2022-11-18T05:16:30;10.90;99.90
59651;DHT22;45954;49.768;8.636;2022-11-18T05:18:56;10.90;99.90
59651;DHT22;45954;49.768;8.636;2022-11-18T05:21:21;10.90;99.90
59651;DHT22;45954;49.768;8.636;2022-11-18T05:23:47;10.90;99.90
59651;DHT22;45954;49.768;8.636;2022-11-18T05:26:13;10.90;99.90
59651;DHT22;45954;49.768;8.636;2022-11-18T05:28:39;10.80;99.90
59651;DHT22;45954;49.768;8.636;2022-11-18T05:31:10;10.80;99.90
59651;DHT22;45954;49.768;8.636;2022-11-18T05:33:38;10.80;99.90
59651;DHT22;45954;49.768;8.636;2022-11-18T05:36:07;10.80;99.90
59651;DHT22;45954;49.768;8.636;2022-11-18T05:38:35;10.80;99.90
59651;DHT22;45954;49.768;8.636;2022-11-18T05:41:02;10.80;99.90
59651;DHT22;45954;49.768;8.636;2022-11-18T05:43:30;10.80;99.90
59651;DHT22;45954;49.768;8.636;2022-11-18T05:45:56;10.80;99.90
59651;DHT22;45954;49.768;8.636;2022-11-18T05:48:23;10.80;99.90
59651;DHT22;45954;49.768;8.636;2022-11-18T05:50:52;10.90;99.90
59651;DHT22;45954;49.768;8.636;2022-11-18T05:53:21;10.90;99.90
59651;DHT22;45954;49.768;8.636;2022-11-18T05:56:02;10.90;99.90
59651;DHT22;45954;49.768;8.636;2022-11-18T05:58:30;10.80;99.90
59651;DHT22;45954;49.768;8.636;2022-11-18T06:01:02;10.50;99.90
59651;DHT22;45954;49.768;8.636;2022-11-18T06:03:32;10.50;99.90
59651;DHT22;45954;49.768;8.636;2022-11-18T06:06:03;10.40;99.90
59651;DHT22;45954;49.768;8.636;2022-11-18T06:08:38;10.40;99.90
59651;DHT22;45954;49.768;8.636;2022-11-18T06:11:13;10.60;99.90
59651;DHT22;45954;49.768;8.636;2022-11-18T06:14:10;10.50;99.90
59651;DHT22;45954;49.768;8.636;2022-11-18T06:16:46;10.50;99.90
59651;DHT22;45954;49.768;8.636;2022-11-18T06:19:15;10.50;99.90
59651;DHT22;45954;49.768;8.636;2022-11-18T06:21:43;10.60;99.90
59651;DHT22;45954;49.768;8.636;2022-11-18T06:24:10;10.60;99.90
59651;DHT22;45954;49.768;8.636;2022-11-18T06:26:37;10.40;99.90
59651;DHT22;45954;49.768;8.636;2022-11-18T06:29:07;10.40;99.90
59651;DHT22;45954;49.768;8.636;2022-11-18T06:31:35;10.40;99.90
59651;DHT22;45954;49.768;8.636;2022-11-18T06:34:01;10.50;99.90
59651;DHT22;45954;49.768;8.636;2022-11-18T06:36:26;10.50;99.90
59651;DHT22;45954;49.768;8.636;2022-11-18T06:38:52;10.60;99.90
59651;DHT22;45954;49.768;8.636;2022-11-18T06:41:18;10.50;99.90
59651;DHT22;45954;49.768;8.636;2022-11-18T06:43:44;10.40;99.90
59651;DHT22;45954;49.768;8.636;2022-11-18T06:46:15;10.40;99.90
59651;DHT22;45954;49.768;8.636;2022-11-18T06:49:01;10.10;99.90
59651;DHT22;45954;49.768;8.636;2022-11-18T06:51:28;10.20;99.90
59651;DHT22;45954;49.768;8.636;2022-11-18T06:53:54;10.30;99.90
59651;DHT22;45954;49.768;8.636;2022-11-18T06:56:21;10.50;99.90
59651;DHT22;45954;49.768;8.636;2022-11-18T06:58:52;10.60;99.90
59651;DHT22;45954;49.768;8.636;2022-11-18T07:01:22;10.60;99.90
59651;DHT22;45954;49.768;8.636;2022-11-18T07:03:50;10.50;99.90
59651;DHT22;45954;49.768;8.636;2022-11-18T07:06:19;10.40;99.90
59651;DHT22;45954;49.768;8.636;2022-11-18T07:08:50;10.40;99.90
59651;DHT22;45954;49.768;8.636;2022-11-18T07:11:20;10.40;99.90
59651;DHT22;45954;49.768;8.636;2022-11-18T07:13:47;10.30;99.90
59651;DHT22;45954;49.768;8.636;2022-11-18T07:16:19;10.30;99.90
59651;DHT22;45954;49.768;8.636;2022-11-18T07:18:47;10.40;99.90
59651;DHT22;45954;49.768;8.636;2022-11-18T07:21:17;10.30;99.90
59651;DHT22;45954;49.768;8.636;2022-11-18T07:23:45;10.40;99.90
59651;DHT22;45954;49.768;8.636;2022-11-18T07:26:12;10.40;99.90
59651;DHT22;45954;49.768;8.636;2022-11-18T07:28:38;10.50;99.90
59651;DHT22;45954;49.768;8.636;2022-11-18T07:31:10;10.50;99.90
59651;DHT22;45954;49.768;8.636;2022-11-18T07:33:38;10.40;99.90
59651;DHT22;45954;49.768;8.636;2022-11-18T07:36:25;10.50;99.90
59651;DHT22;45954;49.768;8.636;2022-11-18T07:38:53;10.60;99.90
59651;DHT22;45954;49.768;8.636;2022-11-18T07:41:24;10.50;99.90
59651;DHT22;45954;49.768;8.636;2022-11-18T07:43:53;10.20;99.90
59651;DHT22;45954;49.768;8.636;2022-11-18T07:46:26;10.30;99.90
59651;DHT22;45954;49.768;8.636;2022-11-18T07:49:00;10.30;99.90
59651;DHT22;45954;49.768;8.636;2022-11-18T07:51:32;10.30;99.90
59651;DHT22;45954;49.768;8.636;2022-11-18T07:54:00;10.30;99.90
59651;DHT22;45954;49.768;8.636;2022-11-18T07:56:30;10.30;99.90
59651;DHT22;45954;49.768;8.636;2022-11-18T07:58:56;10.20;99.90
59651;DHT22;45954;49.768;8.636;2022-11-18T08:01:24;10.20;99.90
59651;DHT22;45954;49.768;8.636;2022-11-18T08:03:53;10.10;99.90
59651;DHT22;45954;49.768;8.636;2022-11-18T08:06:19;10.10;99.90
59651;DHT22;45954;49.768;8.636;2022-11-18T08:08:46;10.10;99.90
59651;DHT22;45954;49.768;8.636;2022-11-18T08:11:15;10.20;99.90
59651;DHT22;45954;49.768;8.636;2022-11-18T08:13:43;10.10;99.90
59651;DHT22;45954;49.768;8.636;2022-11-18T08:16:19;10.10;99.90
59651;DHT22;45954;49.768;8.636;2022-11-18T08:18:47;10.20;99.90
59651;DHT22;45954;49.768;8.636;2022-11-18T08:21:14;10.30;99.90
59651;DHT22;45954;49.768;8.636;2022-11-18T08:23:42;10.20;99.90
59651;DHT22;45954;49.768;8.636;2022-11-18T08:26:11;10.20;99.90
59651;DHT22;45954;49.768;8.636;2022-11-18T08:28:40;10.20;99.90
59651;DHT22;45954;49.768;8.636;2022-11-18T08:31:17;10.00;99.90
59651;DHT22;45954;49.768;8.636;2022-11-18T08:33:44;10.10;99.90
59651;DHT22;45954;49.768;8.636;2022-11-18T08:36:20;10.10;99.90
59651;DHT22;45954;49.768;8.636;2022-11-18T08:38:48;10.00;99.90
59651;DHT22;45954;49.768;8.636;2022-11-18T08:41:18;10.00;99.90
59651;DHT22;45954;49.768;8.636;2022-11-18T08:43:49;10.00;99.90
59651;DHT22;45954;49.768;8.636;2022-11-18T08:46:14;10.10;99.90
59651;DHT22;45954;49.768;8.636;2022-11-18T08:48:40;10.00;99.90
59651;DHT22;45954;49.768;8.636;2022-11-18T08:51:10;10.00;99.90
59651;DHT22;45954;49.768;8.636;2022-11-18T08:53:36;10.00;99.90
59651;DHT22;45954;49.768;8.636;2022-11-18T08:56:02;10.10;99.90
59651;DHT22;45954;49.768;8.636;2022-11-18T08:58:28;9.90;99.90
59651;DHT22;45954;49.768;8.636;2022-11-18T09:00:54;9.80;99.90
59651;DHT22;45954;49.768;8.636;2022-11-18T09:03:21;9.80;99.90
59651;DHT22;45954;49.768;8.636;2022-11-18T09:05:47;9.90;99.90
59651;DHT22;45954;49.768;8.636;2022-11-18T09:08:13;9.90;99.90
59651;DHT22;45954;49.768;8.636;2022-11-18T09:10:40;9.90;99.90
59651;DHT22;45954;49.768;8.636;2022-11-18T09:13:06;10.10;99.90
59651;DHT22;45954;49.768;8.636;2022-11-18T09:15:32;10.20;99.90
59651;DHT22;45954;49.768;8.636;2022-11-18T09:17:58;10.00;99.90
59651;DHT22;45954;49.768;8.636;2022-11-18T09:20:24;10.00;99.90
59651;DHT22;45954;49.768;8.636;2022-11-18T09:22:50;9.80;99.90
59651;DHT22;45954;49.768;8.636;2022-11-18T09:25:17;9.90;99.90
59651;DHT22;45954;49.768;8.636;2022-11-18T09:27:45;10.00;99.90
59651;DHT22;45954;49.768;8.636;2022-11-18T09:30:12;10.00;99.90
59651;DHT22;45954;49.768;8.636;2022-11-18T09:32:38;9.90;99.90
59651;DHT22;45954;49.768;8.636;2022-11-18T09:35:04;9.90;99.90
59651;DHT22;45954;49.768;8.636;2022-11-18T09:37:32;10.00;99.90
59651;DHT22;45954;49.768;8.636;2022-11-18T09:39:57;9.90;99.90
59651;DHT22;45954;49.768;8.636;2022-11-18T09:42:56;10.20;99.90
59651;DHT22;45954;49.768;8.636;2022-11-18T09:45:57;10.10;99.90
59651;DHT22;45954;49.768;8.636;2022-11-18T09:48:27;10.30;99.90
59651;DHT22;45954;49.768;8.636;2022-11-18T09:51:13;10.40;99.90
59651;DHT22;45954;49.768;8.636;2022-11-18T09:53:43;10.40;99.90
59651;DHT22;45954;49.768;8.636;2022-11-18T09:56:14;10.60;99.90
59651;DHT22;45954;49.768;8.636;2022-11-18T09:58:42;10.50;99.90
59651;DHT22;45954;49.768;8.636;2022-11-18T10:01:16;10.50;99.90
59651;DHT22;45954;49.768;8.636;2022-11-18T10:03:44;10.60;99.90
59651;DHT22;45954;49.768;8.636;2022-11-18T10:06:31;10.60;99.90
59651;DHT22;45954;49.768;8.636;2022-11-18T10:17:38;10.60;99.90
59651;DHT22;45954;49.768;8.636;2022-11-18T10:20:46;10.40;99.90
59651;DHT22;45954;49.768;8.636;2022-11-18T10:23:54;10.60;99.90
59651;DHT22;45954;49.768;8.636;2022-11-18T10:26:33;10.50;99.90
59651;DHT22;45954;49.768;8.636;2022-11-18T10:29:01;10.40;99.90
59651;DHT22;45954;49.768;8.636;2022-11-18T10:31:28;10.20;99.90
59651;DHT22;45954;49.768;8.636;2022-11-18T10:34:00;10.20;99.90
59651;DHT22;45954;49.768;8.636;2022-11-18T10:36:28;10.20;99.90
59651;DHT22;45954;49.768;8.636;2022-11-18T10:39:06;10.30;99.90
59651;DHT22;45954;49.768;8.636;2022-11-18T10:41:41;10.30;99.90
59651;DHT22;45954;49.768;8.636;2022-11-18T10:47:01;10.50;99.90
59651;DHT22;45954;49.768;8.636;2022-11-18T10:49:40;10.40;99.90
59651;DHT22;45954;49.768;8.636;2022-11-18T10:52:12;10.50;99.90
59651;DHT22;45954;49.768;8.636;2022-11-18T10:54:40;10.70;99.90
59651;DHT22;45954;49.768;8.636;2022-11-18T10:57:17;10.70;99.90
59651;DHT22;45954;49.768;8.636;2022-11-18T10:59:54;10.60;99.90
59651;DHT22;45954;49.768;8.636;2022-11-18T11:02:32;10.60;99.90
59651;DHT22;45954;49.768;8.636;2022-11-18T11:05:16;10.60;99.90
59651;DHT22;45954;49.768;8.636;2022-11-18T11:07:44;10.70;99.90
59651;DHT22;45954;49.768;8.636;2022-11-18T11:12:55;10.30;99.90
59651;DHT22;45954;49.768;8.636;2022-11-18T11:15:46;10.70;99.90
59651;DHT22;45954;49.768;8.636;2022-11-18T11:18:28;10.60;99.90
59651;DHT22;45954;49.768;8.636;2022-11-18T11:21:18;10.50;99.90
59651;DHT22;45954;49.768;8.636;2022-11-18T11:23:47;10.60;99.90
59651;DHT22;45954;49.768;8.636;2022-11-18T11:41:23;10.80;99.90
59651;DHT22;45954;49.768;8.636;2022-11-18T11:50:32;10.90;99.90
59651;DHT22;45954;49.768;8.636;2022-11-18T11:53:23;11.00;99.90
59651;DHT22;45954;49.768;8.636;2022-11-18T11:56:11;10.90;99.90
59651;DHT22;45954;49.768;8.636;2022-11-18T12:01:53;11.00;99.90
59651;DHT22;45954;49.768;8.636;2022-11-18T12:04:57;11.00;99.90
59651;DHT22;45954;49.768;8.636;2022-11-18T12:07:38;11.10;99.90
59651;DHT22;45954;49.768;8.636;2022-11-18T12:19:23;11.30;99.90
59651;DHT22;45954;49.768;8.636;2022-11-18T12:24:30;11.80;99.90
59651;DHT22;45954;49.768;8.636;2022-11-18T12:27:03;11.80;99.90
59651;DHT22;45954;49.768;8.636;2022-11-18T12:32:31;11.50;99.90
59651;DHT22;45954;49.768;8.636;2022-11-18T12:35:23;11.50;99.90
59651;DHT22;45954;49.768;8.636;2022-11-18T12:40:43;11.60;99.90
59651;DHT22;45954;49.768;8.636;2022-11-18T12:51:49;11.70;99.90
59651;DHT22;45954;49.768;8.636;2022-11-18T12:54:44;11.70;99.90
59651;DHT22;45954;49.768;8.636;2022-11-18T12:57:31;11.80;99.90
59651;DHT22;45954;49.768;8.636;2022-11-18T13:00:17;11.60;99.90
59651;DHT22;45954;49.768;8.636;2022-11-18T13:02:55;11.60;99.90
59651;DHT22;45954;49.768;8.636;2022-11-18T13:05:29;11.50;99.90
59651;DHT22;45954;49.768;8.636;2022-11-18T13:08:04;11.40;99.90
59651;DHT22;45954;49.768;8.636;2022-11-18T13:13:26;11.90;99.90
59651;DHT22;45954;49.768;8.636;2022-11-18T13:16:01;12.00;99.90
59651;DHT22;45954;49.768;8.636;2022-11-18T13:18:53;11.90;99.90
59651;DHT22;45954;49.768;8.636;2022-11-18T13:21:24;11.90;99.90
59651;DHT22;45954;49.768;8.636;2022-11-18T13:24:15;11.80;99.90
59651;DHT22;45954;49.768;8.636;2022-11-18T13:26:46;11.90;99.90
59651;DHT22;45954;49.768;8.636;2022-11-18T13:29:26;11.90;99.90
59651;DHT22;45954;49.768;8.636;2022-11-18T13:32:07;11.90;99.90
59651;DHT22;45954;49.768;8.636;2022-11-18T13:34:49;11.90;99.90
59651;DHT22;45954;49.768;8.636;2022-11-18T13:37:26;12.00;99.90
59651;DHT22;45954;49.768;8.636;2022-11-18T13:39:55;12.10;99.90
59651;DHT22;45954;49.768;8.636;2022-11-18T13:42:29;12.10;99.90
59651;DHT22;45954;49.768;8.636;2022-11-18T13:44:58;12.10;99.90
59651;DHT22;45954;49.768;8.636;2022-11-18T13:53:08;12.10;99.90
59651;DHT22;45954;49.768;8.636;2022-11-18T13:56:02;12.20;99.90
59651;DHT22;45954;49.768;8.636;2022-11-18T13:58:40;12.30;99.90
59651;DHT22;45954;49.768;8.636;2022-11-18T14:01:22;12.20;99.90
59651;DHT22;45954;49.768;8.636;2022-11-18T14:03:54;12.20;99.90
59651;DHT22;45954;49.768;8.636;2022-11-18T14:06:34;12.30;99.90
59651;DHT22;45954;49.768;8.636;2022-11-18T14:09:16;12.30;99.90
59651;DHT22;45954;49.768;8.636;2022-11-18T14:12:04;12.30;99.90
59651;DHT22;45954;49.768;8.636;2022-11-18T14:14:40;12.30;99.90
59651;DHT22;45954;49.768;8.636;2022-11-18T14:17:24;12.60;99.90
59651;DHT22;45954;49.768;8.636;2022-11-18T14:19:54;12.40;99.90
59651;DHT22;45954;49.768;8.636;2022-11-18T14:22:29;12.50;99.90
59651;DHT22;45954;49.768;8.636;2022-11-18T14:25:01;12.30;99.90
59651;DHT22;45954;49.768;8.636;2022-11-18T14:27:47;12.20;99.90
59651;DHT22;45954;49.768;8.636;2022-11-18T14:30:36;12.20;99.90
59651;DHT22;45954;49.768;8.636;2022-11-18T14:35:47;12.00;99.90
59651;DHT22;45954;49.768;8.636;2022-11-18T14:38:24;12.00;99.90
59651;DHT22;45954;49.768;8.636;2022-11-18T14:41:11;12.00;99.90
59651;DHT22;45954;49.768;8.636;2022-11-18T14:43:38;11.60;99.90
59651;DHT22;45954;49.768;8.636;2022-11-18T14:46:10;11.40;99.90
59651;DHT22;45954;49.768;8.636;2022-11-18T14:48:39;11.50;99.90
59651;DHT22;45954;49.768;8.636;2022-11-18T14:51:05;11.70;99.90
59651;DHT22;45954;49.768;8.636;2022-11-18T14:53:30;11.60;99.90
59651;DHT22;45954;49.768;8.636;2022-11-18T14:55:58;11.60;99.90
59651;DHT22;45954;49.768;8.636;2022-11-18T14:58:28;11.40;99.90
59651;DHT22;45954;49.768;8.636;2022-11-18T15:00:54;11.40;99.90
59651;DHT22;45954;49.768;8.636;2022-11-18T15:03:20;11.40;99.90
59651;DHT22;45954;49.768;8.636;2022-11-18T15:05:46;11.30;99.90
59651;DHT22;45954;49.768;8.636;2022-11-18T15:08:12;11.30;99.90
59651;DHT22;45954;49.768;8.636;2022-11-18T15:10:38;11.20;99.90
59651;DHT22;45954;49.768;8.636;2022-11-18T15:13:04;11.10;99.90
59651;DHT22;45954;49.768;8.636;2022-11-18T15:15:30;11.10;99.90
59651;DHT22;45954;49.768;8.636;2022-11-18T15:17:56;11.20;99.90
59651;DHT22;45954;49.768;8.636;2022-11-18T15:20:22;11.10;99.90
59651;DHT22;45954;49.768;8.636;2022-11-18T15:22:48;11.20;99.90
59651;DHT22;45954;49.768;8.636;2022-11-18T15:25:13;11.10;99.90
59651;DHT22;45954;49.768;8.636;2022-11-18T15:27:39;11.00;99.90
59651;DHT22;45954;49.768;8.636;2022-11-18T15:30:06;10.90;99.90
59651;DHT22;45954;49.768;8.636;2022-11-18T15:32:32;10.80;99.90
59651;DHT22;45954;49.768;8.636;2022-11-18T15:34:58;10.90;99.90
59651;DHT22;45954;49.768;8.636;2022-11-18T15:37:24;10.80;99.90
59651;DHT22;45954;49.768;8.636;2022-11-18T15:39:49;10.70;99.90
59651;DHT22;45954;49.768;8.636;2022-11-18T15:42:16;10.80;99.90
59651;DHT22;45954;49.768;8.636;2022-11-18T15:44:43;10.70;99.90
59651;DHT22;45954;49.768;8.636;2022-11-18T15:47:10;10.60;99.90
59651;DHT22;45954;49.768;8.636;2022-11-18T15:49:36;10.60;99.90
59651;DHT22;45954;49.768;8.636;2022-11-18T15:52:09;10.60;99.90
59651;DHT22;45954;49.768;8.636;2022-11-18T15:54:36;10.60;99.90
59651;DHT22;45954;49.768;8.636;2022-11-18T15:57:02;10.50;99.90
59651;DHT22;45954;49.768;8.636;2022-11-18T15:59:28;10.40;99.90
59651;DHT22;45954;49.768;8.636;2022-11-18T16:01:55;10.50;99.90
59651;DHT22;45954;49.768;8.636;2022-11-18T16:04:22;10.50;99.90
59651;DHT22;45954;49.768;8.636;2022-11-18T16:06:47;10.40;99.90
59651;DHT22;45954;49.768;8.636;2022-11-18T16:09:15;10.40;99.90
59651;DHT22;45954;49.768;8.636;2022-11-18T16:11:42;10.40;99.90
59651;DHT22;45954;49.768;8.636;2022-11-18T16:14:26;10.40;99.90
59651;DHT22;45954;49.768;8.636;2022-11-18T16:16:54;10.30;99.90
59651;DHT22;45954;49.768;8.636;2022-11-18T16:19:23;10.20;99.90
59651;DHT22;45954;49.768;8.636;2022-11-18T16:21:55;10.30;99.90
59651;DHT22;45954;49.768;8.636;2022-11-18T16:24:24;10.20;99.90
59651;DHT22;45954;49.768;8.636;2022-11-18T16:26:51;10.30;99.90
59651;DHT22;45954;49.768;8.636;2022-11-18T16:29:17;10.20;99.90
59651;DHT22;45954;49.768;8.636;2022-11-18T16:31:45;10.20;99.90
59651;DHT22;45954;49.768;8.636;2022-11-18T16:34:25;10.20;99.90
59651;DHT22;45954;49.768;8.636;2022-11-18T16:36:57;10.30;99.90
59651;DHT22;45954;49.768;8.636;2022-11-18T16:39:27;10.30;99.90
59651;DHT22;45954;49.768;8.636;2022-11-18T16:41:56;10.30;99.90
59651;DHT22;45954;49.768;8.636;2022-11-18T16:44:23;10.10;99.90
59651;DHT22;45954;49.768;8.636;2022-11-18T16:46:54;10.20;99.90
59651;DHT22;45954;49.768;8.636;2022-11-18T16:49:23;10.20;99.90
59651;DHT22;45954;49.768;8.636;2022-11-18T16:51:53;10.20;99.90
59651;DHT22;45954;49.768;8.636;2022-11-18T16:54:25;10.20;99.90
59651;DHT22;45954;49.768;8.636;2022-11-18T16:56:55;10.20;99.90
59651;DHT22;45954;49.768;8.636;2022-11-18T16:59:25;10.00;99.90
59651;DHT22;45954;49.768;8.636;2022-11-18T17:01:54;9.90;99.90
59651;DHT22;45954;49.768;8.636;2022-11-18T17:04:22;10.00;99.90
59651;DHT22;45954;49.768;8.636;2022-11-18T17:06:51;10.10;99.90
59651;DHT22;45954;49.768;8.636;2022-11-18T17:09:19;10.20;99.90
59651;DHT22;45954;49.768;8.636;2022-11-18T17:11:46;10.20;99.90
59651;DHT22;45954;49.768;8.636;2022-11-18T17:14:12;10.20;99.90
59651;DHT22;45954;49.768;8.636;2022-11-18T17:16:39;10.10;99.90
59651;DHT22;45954;49.768;8.636;2022-11-18T17:19:05;10.20;99.90
59651;DHT22;45954;49.768;8.636;2022-11-18T17:21:31;10.10;99.90
59651;DHT22;45954;49.768;8.636;2022-11-18T17:23:57;10.10;99.90
59651;DHT22;45954;49.768;8.636;2022-11-18T17:26:25;10.20;99.90
59651;DHT22;45954;49.768;8.636;2022-11-18T17:28:54;10.20;99.90
59651;DHT22;45954;49.768;8.636;2022-11-18T17:31:22;10.10;99.90
59651;DHT22;45954;49.768;8.636;2022-11-18T17:33:51;10.20;99.90
59651;DHT22;45954;49.768;8.636;2022-11-18T17:36:23;10.20;99.90
59651;DHT22;45954;49.768;8.636;2022-11-18T17:38:52;10.20;99.90
59651;DHT22;45954;49.768;8.636;2022-11-18T17:41:22;10.20;99.90